Date,TemperatureHighF,TemperatureAvgF,TemperatureLowF,DewpointHighF,DewpointAvgF,DewpointLowF,HumidityHigh,HumidityAvg,HumidityLow,PressureMaxIn,PressureMinIn,WindSpeedMaxMPH,WindSpeedAvgMPH,GustSpeedMaxMPH,PrecipitationSumIn
2013-1-1,36,34,30,29,27,23,76,74,74,30.23,30.08,10,2,0,0.59
2013-1-2,30,28,26,23,21,19,84,74,73,30.32,30.23,10,1,0,0.01
2013-1-3,38,32,26,29,26,22,83,78,70,30.48,30.31,14,4,0,0.00
2013-1-4,40,35,30,29,24,19,81,66,49,30.52,30.39,8,1,0,0.00
2013-1-5,44,38,35,34,29,19,82,69,48,30.39,30.24,11,2,0,0.00
2013-1-6,46,39,34,33,29,25,83,67,47,30.39,30.25,22,4,0,0.00
2013-1-7,43,37,32,29,26,24,80,66,56,30.41,30.19,12,2,0,0.00
2013-1-8,48,42,35,38,34,26,81,73,62,30.24,30.13,14,5,0,0.00
2013-1-9,49,47,43,43,38,34,79,72,68,30.33,30.20,33,16,0,0.10
2013-1-10,57,50,46,47,42,37,74,73,71,30.20,29.86,30,9,0,0.14
2013-1-11,60,51,44,49,43,35,80,74,63,29.95,29.85,13,4,0,0.00
2013-1-12,58,52,33,50,43,25,80,72,66,29.89,29.67,18,3,0,5.00
2013-1-13,33,30,22,29,24,18,84,77,72,30.34,29.83,18,7,0,0.01
2013-1-14,30,23,18,22,17,13,85,77,66,30.46,30.31,19,10,0,0.00
2013-1-15,27,24,21,21,16,13,84,74,67,30.39,30.18,15,8,0,0.00
2013-1-16,39,32,25,22,18,11,84,58,32,30.27,30.16,14,5,0,0.01
2013-1-17,47,40,34,33,26,18,66,58,50,30.51,30.22,20,6,0,0.00
2013-1-18,50,41,34,32,27,24,71,58,43,30.55,30.28,21,4,0,0.00
2013-1-19,58,48,40,39,32,23,67,56,48,30.28,30.14,11,2,0,0.00
2013-1-20,52,48,43,40,34,30,75,59,48,30.27,30.14,20,5,0,0.00
2013-1-21,42,35,28,33,20,10,75,55,39,30.35,30.18,13,6,0,0.00
2013-1-22,33,29,24,25,19,15,77,66,59,30.42,30.32,14,4,0,0.00
2013-1-23,56,45,33,48,35,25,78,68,52,30.34,30.20,11,2,0,0.00
2013-1-24,56,35,25,49,26,18,83,71,55,30.34,30.17,28,14,0,0.00
2013-1-25,44,35,25,38,29,17,83,77,70,30.28,30.14,9,2,0,0.01
2013-1-26,44,41,38,37,29,26,79,62,50,30.32,30.22,24,10,0,0.00
2013-1-27,58,47,39,46,38,30,81,72,66,30.23,30.05,12,4,0,0.01
2013-1-28,64,61,57,54,50,46,72,68,65,30.06,29.91,17,5,0,7.78
2013-1-29,63,59,49,53,48,39,80,68,64,29.90,29.45,21,6,0,1.97
2013-1-30,49,37,29,43,30,23,82,78,69,30.07,29.48,28,7,0,0.00
2013-1-31,52,38,25,33,25,9,79,61,39,30.38,30.05,14,4,0,0.00
2013-2-1,32,26,18,18,11,4,68,54,43,30.50,30.29,14,5,0,0.00
2013-2-2,53,42,29,32,27,18,70,58,45,30.29,30.23,14,2,0,0.00
2013-2-3,52,47,41,32,26,20,63,45,32,30.28,30.05,15,4,0,0.00
2013-2-4,49,45,40,43,34,25,80,67,41,30.04,29.87,16,3,0,0.00
2013-2-5,60,53,46,50,43,36,79,70,55,30.06,29.94,7,2,0,0.01
2013-2-6,53,47,41,46,38,32,80,72,52,30.15,30.03,22,8,0,0.01
2013-2-7,54,50,44,47,40,36,81,71,65,30.02,29.89,12,3,0,0.51
2013-2-8,48,42,34,38,34,25,81,74,66,30.26,29.99,20,7,0,0.00
2013-2-9,38,33,29,29,24,21,72,70,69,30.29,29.99,23,10,0,0.10
2013-2-10,62,52,38,52,36,26,79,57,26,30.00,29.75,13,2,0,0.60
2013-2-11,52,45,38,31,27,23,59,50,37,30.18,30.00,16,3,0,0.00
2013-2-12,47,39,32,33,28,24,80,67,52,30.14,29.86,30,10,0,0.10
2013-2-13,46,38,33,38,30,25,82,73,68,30.08,29.92,14,4,0,0.08
2013-2-14,58,49,41,37,32,27,74,52,37,30.10,30.01,11,3,0,0.00
2013-2-15,46,38,30,33,25,15,79,60,47,30.30,30.10,16,6,0,0.01
2013-2-16,38,32,25,21,16,12,81,54,40,30.35,30.22,18,4,0,0.00
2013-2-17,58,45,33,36,24,12,56,44,37,30.21,29.95,19,6,0,0.00
2013-2-18,54,48,38,46,40,31,79,72,57,30.02,29.65,27,8,0,0.05
2013-2-19,45,38,30,31,21,17,77,53,39,30.31,30.03,21,4,0,0.00
2013-2-20,37,28,23,21,16,13,80,63,42,30.32,30.14,21,8,0,0.00
2013-2-21,32,28,24,24,20,17,72,71,70,30.15,29.79,18,1,0,0.00
2013-2-22,32,29,24,24,21,16,77,72,70,30.15,29.93,0,0,0,0.51
2013-2-23,41,34,26,33,25,19,81,70,57,30.13,30.00,12,1,0,0.22
2013-2-24,48,40,34,35,31,26,80,71,58,30.07,29.87,25,9,0,0.00
2013-2-25,44,40,38,36,31,29,83,71,65,29.88,29.40,34,18,0,0.52
2013-2-26,39,34,32,31,27,24,81,75,70,29.89,29.35,18,6,0,0.01
2013-2-27,40,34,31,32,28,23,81,77,70,30.08,29.88,23,5,0,0.01
2013-2-28,43,34,29,29,26,24,82,73,56,30.18,30.07,21,7,0,0.00
2013-3-1,34,30,26,25,22,19,81,75,66,30.27,30.15,16,6,0,0.00
2013-3-2,37,30,24,22,19,15,82,66,47,30.34,30.25,12,5,0,0.00
2013-3-3,50,39,28,30,24,17,71,56,42,30.27,29.93,8,1,0,0.00
2013-3-4,56,48,38,49,40,28,79,74,60,29.92,29.68,0,0,0,0.00
2013-3-5,54,41,34,47,28,18,80,61,37,30.28,29.76,30,5,0,0.01
2013-3-6,46,36,26,25,21,18,72,56,40,30.41,30.28,19,3,0,0.00
2013-3-7,52,43,34,34,30,23,75,60,45,30.36,30.24,14,4,0,0.00
2013-3-8,55,46,36,38,34,30,80,66,49,30.34,30.15,19,6,0,0.00
2013-3-9,63,55,46,55,46,36,77,71,61,30.14,29.76,18,5,0,0.03
2013-3-10,58,46,31,50,37,23,79,70,63,29.90,29.64,28,5,0,1.79
2013-3-11,43,35,27,30,25,21,82,69,49,30.10,29.89,21,4,0,0.00
2013-3-12,56,46,37,37,26,17,55,47,34,30.31,30.08,16,2,0,0.00
2013-3-13,52,43,35,23,19,17,52,39,25,30.45,30.31,9,2,0,0.00
2013-3-14,66,53,42,42,30,17,56,42,30,30.41,30.13,13,3,0,0.00
2013-3-15,76,65,56,50,46,42,64,51,34,30.15,29.82,12,2,0,0.00
2013-3-16,75,65,56,52,49,45,72,57,44,29.84,29.74,11,2,0,0.00
2013-3-17,65,48,40,51,38,30,77,70,59,29.82,29.66,17,6,0,0.02
2013-3-18,53,47,44,46,37,32,79,68,53,30.07,29.70,21,5,0,0.07
2013-3-19,51,46,39,33,27,19,72,48,31,30.22,30.03,20,8,0,0.00
2013-3-20,49,43,38,31,24,18,57,47,36,30.32,30.12,15,5,0,0.00
2013-3-21,38,33,29,27,18,13,78,56,42,30.12,29.86,24,8,0,0.00
2013-3-22,36,33,29,27,24,21,73,71,70,29.96,29.86,21,5,0,0.08
2013-3-23,39,37,35,31,29,27,73,73,73,29.95,29.73,20,12,0,0.20
2013-3-24,40,33,26,32,26,21,81,76,69,30.11,29.68,30,8,0,0.07
2013-3-25,34,29,25,23,21,19,81,73,63,30.37,30.10,24,10,0,0.00
2013-3-26,42,33,25,24,22,20,81,65,45,30.47,30.34,15,5,0,0.00
2013-3-27,55,45,35,33,25,19,64,47,33,30.39,30.22,13,3,0,0.00
2013-3-28,67,54,43,48,40,29,71,59,48,30.29,30.16,12,4,0,0.00
2013-3-29,58,54,50,48,44,38,76,68,63,30.18,30.11,14,3,0,0.33
2013-3-30,60,54,49,51,43,39,74,68,62,30.15,29.92,11,3,0,0.62
2013-3-31,61,56,52,52,46,40,77,70,62,29.96,29.86,12,2,0,0.18
2013-4-1,65,58,49,50,44,40,76,60,49,30.10,29.96,18,4,0,0.00
2013-4-2,49,39,32,41,30,23,79,70,59,30.21,30.10,29,17,0,0.43
2013-4-3,43,38,32,28,26,23,81,61,50,30.26,30.15,29,20,0,0.01
2013-4-4,48,41,36,37,31,25,79,67,52,30.19,30.08,21,9,0,0.30
2013-4-5,64,54,46,38,32,26,61,45,25,30.24,30.06,14,4,0,0.00
2013-4-6,71,60,52,48,43,35,67,54,39,30.05,29.84,18,5,0,0.00
2013-4-7,67,61,57,57,52,47,76,73,63,29.95,29.81,14,6,0,0.00
2013-4-8,73,64,57,59,53,44,76,70,60,29.87,29.75,19,5,0,0.00
2013-4-9,78,69,62,63,57,51,76,68,52,29.85,29.72,14,5,0,0.00
2013-4-10,73,59,37,64,49,28,75,70,61,29.79,29.62,30,7,0,1.19
2013-4-11,51,40,32,37,30,24,80,68,55,29.87,29.72,25,6,0,0.00
2013-4-12,60,51,42,39,34,32,69,54,38,30.02,29.86,11,2,0,0.00
2013-4-13,61,54,45,49,40,33,73,59,49,30.08,29.87,18,4,0,0.00
2013-4-14,74,64,56,55,50,47,76,61,42,29.88,29.59,14,4,0,0.00
2013-4-15,72,65,57,62,54,45,75,69,63,29.82,29.68,12,5,0,0.00
2013-4-16,81,73,66,66,61,53,74,67,57,29.95,29.80,12,4,0,0.00
2013-4-17,77,72,68,66,60,54,74,67,61,29.95,29.67,17,4,0,0.00
2013-4-18,72,53,38,64,44,30,79,72,63,29.93,29.56,21,7,0,0.50
2013-4-19,52,42,33,31,28,26,78,59,38,30.17,29.94,17,4,0,0.00
2013-4-20,65,54,46,40,33,26,58,46,33,30.26,30.12,10,2,0,0.00
2013-4-21,62,55,49,45,39,35,74,56,38,30.29,30.16,18,6,0,0.00
2013-4-22,70,60,48,46,41,36,64,52,35,30.22,29.95,11,3,0,0.00
2013-4-23,67,57,40,56,46,30,75,67,60,30.00,29.86,17,5,0,0.02
2013-4-24,53,43,34,36,31,26,80,64,47,30.33,29.98,9,2,0,0.56
2013-4-25,63,54,44,41,34,28,64,49,28,30.40,30.27,14,3,0,0.00
2013-4-26,55,51,47,45,39,36,75,66,52,30.29,30.16,21,8,0,0.27
2013-4-27,56,52,48,47,43,39,73,72,70,30.17,29.97,17,4,0,0.27
2013-4-28,68,56,48,56,47,39,76,72,62,30.03,29.93,12,2,0,0.00
2013-4-29,80,68,56,62,56,49,77,65,45,29.96,29.81,10,3,0,0.00
2013-4-30,79,70,63,59,53,44,71,55,32,29.88,29.81,11,3,0,0.00
2013-5-1,69,65,60,60,55,48,74,70,63,30.05,29.86,16,5,0,0.00
2013-5-2,61,54,38,48,43,29,70,65,61,30.12,30.01,14,3,0,0.59
2013-5-3,45,38,32,38,29,25,80,72,63,30.11,29.99,14,3,0,0.29
2013-5-4,44,39,36,37,31,27,79,73,66,30.00,29.90,14,1,0,0.00
2013-5-5,60,47,37,46,38,29,79,72,57,30.10,29.99,16,2,0,0.00
2013-5-6,65,56,48,54,46,37,76,71,62,30.05,29.96,20,3,0,0.00
2013-5-7,74,66,56,55,51,48,76,60,41,30.07,29.98,9,0,0,0.00
2013-5-8,79,69,62,59,55,52,72,62,46,30.04,29.92,9,2,0,0.00
2013-5-9,76,67,62,61,55,48,75,67,51,30.01,29.88,11,1,0,0.00
2013-5-10,74,65,58,62,54,45,75,67,59,30.00,29.88,5,0,0,0.00
2013-5-11,73,62,53,52,48,36,76,61,43,30.14,29.99,8,1,0,0.00
2013-5-12,66,58,50,41,35,32,57,44,33,30.24,30.14,15,3,0,0.00
2013-5-13,79,67,56,51,45,38,59,46,30,30.22,30.06,16,2,0,0.00
2013-5-14,86,74,65,59,52,46,57,47,32,30.09,29.96,22,2,0,0.00
2013-5-15,76,68,62,65,56,49,73,67,51,30.01,29.89,13,2,0,0.00
2013-5-16,65,61,58,54,50,46,70,67,63,29.91,29.84,11,1,0,0.00
2013-5-17,75,68,61,65,57,50,73,69,61,29.93,29.84,7,1,0,0.01
2013-5-18,80,73,68,70,61,53,71,65,58,29.93,29.83,12,1,0,0.00
2013-5-19,83,75,68,68,62,54,73,66,58,29.85,29.71,15,3,0,0.00
2013-5-20,79,72,61,69,62,46,73,70,59,29.89,29.71,13,2,0,0.00
2013-5-21,68,60,58,58,47,43,74,61,56,29.92,29.65,16,3,0,1.17
2013-5-22,76,65,56,64,52,41,74,65,58,29.94,29.81,11,1,0,0.01
2013-5-23,76,70,65,65,60,56,75,72,64,30.10,29.93,8,0,0,0.00
2013-5-24,66,62,55,57,51,43,75,70,63,30.26,30.09,21,10,0,0.00
2013-5-25,76,66,56,63,56,48,74,69,60,30.26,30.09,13,2,0,0.00
2013-5-26,79,71,64,68,60,52,74,70,64,30.13,30.00,7,1,0,0.00
2013-5-27,80,72,65,66,61,54,73,69,60,30.00,29.86,18,3,0,0.00
2013-5-28,80,73,67,67,62,56,73,69,60,29.93,29.80,10,2,0,0.00
2013-5-29,80,73,68,67,62,56,73,70,65,29.92,29.79,11,2,0,0.00
2013-5-30,75,69,66,65,58,53,72,67,62,29.86,29.77,12,3,0,0.07
2013-5-31,83,74,65,72,63,53,72,68,62,29.85,29.68,18,3,0,0.01
2013-6-1,75,65,61,62,53,48,74,66,62,29.95,29.76,14,1,0,0.37
2013-6-2,73,65,58,61,55,49,76,71,62,30.01,29.94,16,1,0,0.00
2013-6-3,72,64,54,60,54,43,75,71,62,30.03,29.93,13,1,0,0.00
2013-6-4,73,67,60,63,58,49,74,72,68,30.01,29.91,18,2,0,0.00
2013-6-5,78,71,66,67,61,57,74,73,67,29.98,29.77,13,1,0,0.00
2013-6-6,73,68,63,64,58,53,74,72,68,29.89,29.81,4,0,0,0.00
2013-6-7,75,68,61,58,55,53,75,65,49,29.94,29.86,5,0,0,0.00
2013-6-8,80,71,62,62,56,53,74,62,46,29.94,29.86,10,2,0,0.00
2013-6-9,79,71,65,68,59,54,74,67,53,29.92,29.82,11,2,0,0.00
2013-6-10,87,78,69,71,64,56,73,64,49,29.92,29.86,5,0,0,0.00
2013-6-11,90,81,73,73,68,64,73,66,49,29.99,29.89,12,1,0,0.00
2013-6-12,88,80,72,73,68,62,72,67,57,30.00,29.88,11,1,0,0.00
2013-7-1,78,74,68,61,56,52,73,55,41,29.98,29.92,12,4,0,0.00
2013-7-2,79,71,63,58,54,51,71,56,41,30.04,29.96,17,2,0,0.00
2013-7-3,79,71,63,57,53,48,74,54,35,30.09,29.99,10,2,0,0.00
2013-7-4,83,74,67,62,56,53,66,54,38,30.04,29.94,8,2,0,0.00
2013-7-5,84,77,70,62,57,52,66,50,39,30.02,29.92,8,1,0,0.00
2013-7-6,83,74,66,68,63,56,74,68,51,30.00,29.91,11,2,0,0.00
2013-7-7,86,79,70,69,66,61,74,65,49,30.03,29.95,12,2,0,0.00
2013-7-8,89,80,73,72,68,63,73,67,54,30.08,29.99,7,2,0,0.00
2013-7-9,92,82,74,72,68,64,73,62,47,30.07,29.95,10,2,0,0.00
2013-7-10,96,81,68,73,67,57,73,63,43,29.99,29.85,22,3,0,0.00
2013-7-11,87,80,72,75,68,63,75,67,46,29.96,29.89,8,1,0,0.00
2013-7-12,82,75,68,67,60,52,74,62,40,30.02,29.94,18,6,0,0.00
2013-7-13,80,74,67,61,58,55,68,59,50,30.03,29.94,11,3,0,0.00
2013-7-14,80,73,68,66,61,58,74,67,50,30.02,29.94,20,6,0,0.00
2013-7-15,84,75,67,69,64,57,74,69,57,30.14,30.00,19,7,0,0.00
2013-7-16,84,77,71,71,66,60,74,68,55,30.22,30.13,19,4,0,0.00
2013-7-17,86,79,72,70,66,61,74,65,53,30.27,30.14,18,2,0,0.00
2013-7-18,93,81,72,71,67,62,74,63,40,30.19,29.99,25,1,0,0.00
2013-7-19,87,75,70,72,65,60,74,71,55,30.02,29.91,8,1,0,0.00
2013-7-20,83,74,70,72,64,60,75,72,63,29.95,29.84,11,1,0,0.00
2013-7-21,86,78,71,72,67,61,74,70,62,29.93,29.83,11,1,0,0.00
2013-7-22,89,79,71,74,66,55,75,67,44,29.96,29.82,10,1,0,0.00
2013-7-23,95,80,67,75,69,58,74,69,52,29.91,29.77,12,2,0,0.00
2013-7-24,81,73,66,69,63,56,74,71,62,29.98,29.76,19,3,0,0.20
2013-7-25,78,73,69,68,64,59,75,72,68,30.07,29.97,7,1,0,0.20
2013-7-26,71,66,63,62,58,54,77,74,70,30.05,29.93,11,4,0,0.23
2013-7-27,82,71,62,68,60,55,78,70,54,30.02,29.93,6,1,0,0.23
2013-7-28,84,72,65,67,62,56,76,69,55,30.02,29.95,14,4,0,0.00
2013-7-29,83,73,64,72,63,54,74,72,70,30.08,30.00,9,1,0,0.00
2013-7-30,82,76,72,72,66,62,74,71,69,30.03,29.97,12,1,0,0.00
2013-7-31,89,77,70,77,67,60,74,71,64,30.03,29.92,12,1,0,0.03
2013-8-1,85,77,71,72,67,61,74,70,63,30.04,29.95,11,2,0,0.03
2013-8-2,85,76,69,75,67,59,74,71,69,29.99,29.89,12,2,0,0.00
2013-8-3,82,76,67,72,66,57,74,71,68,30.08,29.88,14,2,0,0.00
2013-8-4,81,74,69,72,65,59,74,72,69,30.10,30.00,17,2,0,0.02
2013-8-5,88,78,70,77,69,62,76,73,69,30.02,29.86,9,1,0,0.03
2013-8-6,87,82,76,76,72,67,73,71,67,29.90,29.79,11,2,0,0.00
2013-8-7,86,80,77,74,70,68,73,71,65,29.90,29.78,13,2,0,0.00
2013-8-8,89,78,69,76,67,59,74,69,63,29.92,29.80,16,1,0,0.07
2013-8-9,84,74,68,74,64,59,73,71,68,30.01,29.88,11,1,0,0.01
2013-8-10,81,74,70,71,64,59,73,71,68,30.06,29.96,15,2,0,0.00
2013-8-11,81,73,68,72,64,59,75,72,67,30.08,30.01,10,2,0,0.00
2013-8-12,86,75,69,75,64,58,72,68,66,30.03,29.93,9,1,0,0.00
2013-8-13,75,71,68,66,60,57,74,69,66,30.03,29.93,11,1,0,0.29
2013-8-14,72,68,62,61,57,53,76,69,61,30.10,29.99,20,8,0,0.29
2013-8-15,71,64,57,58,54,49,76,70,58,30.11,30.01,19,6,0,0.00
2013-8-16,68,64,60,59,55,53,76,74,71,30.09,30.03,9,2,0,0.00
2013-8-17,74,67,61,63,59,53,75,73,69,30.11,30.02,13,3,0,0.00
2013-8-18,75,69,64,66,60,54,74,71,69,30.12,30.04,11,2,0,0.00
2013-8-19,78,72,65,67,62,55,74,70,60,30.11,29.99,6,0,0,0.00
2013-8-20,81,74,68,68,64,59,74,70,59,30.08,30.00,7,0,0,0.00
2013-8-21,87,78,71,71,65,61,74,66,48,30.11,30.02,7,1,0,0.00
2013-8-22,87,80,72,72,68,62,73,66,49,30.08,29.97,10,2,0,0.00
2013-8-23,86,79,75,72,68,65,73,70,58,30.05,29.96,17,2,0,0.00
2013-8-24,84,78,73,72,68,63,73,70,63,30.12,30.01,18,4,0,0.00
2013-8-25,84,78,71,73,67,60,73,70,63,30.18,30.10,14,2,0,0.00
2013-8-26,84,78,71,71,66,61,73,68,60,30.20,30.08,8,1,0,0.00
2013-8-27,88,79,72,70,65,62,72,63,48,30.11,30.00,7,2,0,0.00
2013-8-28,90,81,72,72,67,63,73,64,49,30.06,29.98,14,2,0,0.00
2013-8-29,91,82,74,73,68,63,72,63,50,30.05,29.95,11,2,0,0.00
2013-8-30,91,83,77,74,69,66,71,63,49,29.98,29.85,11,2,0,0.00
2013-8-31,95,84,78,72,68,66,69,60,44,29.89,29.79,8,2,0,0.00
2013-9-1,91,80,70,73,68,60,74,66,53,29.86,29.75,13,2,0,0.02
2013-9-2,86,78,73,73,68,64,73,71,67,29.93,29.83,11,1,0,0.02
2013-9-3,84,76,69,67,63,60,73,65,50,30.01,29.92,20,4,0,0.00
2013-9-4,83,75,69,62,58,51,71,58,40,30.12,30.00,17,2,0,0.00
2013-9-5,82,74,66,65,61,57,75,64,46,30.16,30.06,14,2,0,0.00
2013-9-6,83,75,68,66,60,51,74,61,34,30.13,30.00,9,1,0,0.00
2013-9-7,92,81,71,71,64,62,74,59,39,30.03,29.91,4,0,0,0.00
2013-9-8,92,84,77,70,65,63,63,54,44,29.96,29.86,6,0,0,0.00
2013-9-9,93,84,78,72,64,61,66,51,38,29.98,29.89,7,1,0,0.00
2013-9-10,92,83,75,68,64,61,62,53,41,30.09,29.95,6,0,0,0.00
2013-9-11,90,80,75,71,66,64,73,64,46,30.10,30.02,13,1,0,0.00
2013-9-12,88,79,73,72,67,62,74,67,45,30.05,29.94,8,0,0,0.00
2013-9-13,79,72,64,65,58,52,75,62,47,30.02,29.92,21,8,0,0.00
2013-9-14,72,65,57,54,51,48,76,63,45,30.07,29.97,21,5,0,0.00
2013-9-15,83,71,59,60,54,47,68,55,41,30.08,30.02,0,0,0,0.00
2013-9-16,82,75,68,66,59,54,74,58,44,30.14,30.03,0,0,0,0.00
2013-9-17,81,72,62,66,60,54,77,68,56,30.13,29.99,0,0,0,0.00
2013-9-18,87,77,71,68,64,61,73,66,51,30.03,29.93,0,0,0,0.00
2013-9-19,83,76,72,72,67,63,74,72,66,30.01,29.88,0,0,0,0.00
2013-9-20,77,66,60,66,58,52,79,75,68,29.91,29.83,14,0,0,0.22
2013-9-21,71,64,56,54,49,43,78,61,39,29.98,29.88,13,4,0,0.22
2013-9-22,70,63,56,53,50,45,73,62,50,29.98,29.86,18,6,0,0.00
2013-9-23,72,64,56,56,53,49,78,68,54,29.93,29.83,18,4,0,0.00
2013-9-24,82,72,64,62,57,53,72,60,40,29.89,29.79,11,1,0,0.00
2013-9-25,77,69,61,61,58,53,77,68,56,29.85,29.78,13,1,0,0.00
2013-9-26,78,72,65,62,58,55,75,64,46,29.96,29.84,10,1,0,0.00
2013-9-27,79,73,64,63,60,55,76,66,51,30.02,29.92,14,1,0,0.00
2013-9-28,82,71,66,67,61,58,76,71,58,30.01,29.91,12,2,0,0.00
2013-9-29,71,67,64,63,59,56,78,75,72,29.99,29.91,7,0,0,0.01
2013-9-30,72,67,64,65,59,56,78,76,72,29.93,29.87,5,0,0,0.01
2013-10-1,79,71,68,70,63,60,77,75,71,30.00,29.89,3,0,0,0.00
2013-10-2,79,71,67,69,62,58,75,72,70,30.04,29.92,8,1,0,0.00
2013-10-3,79,72,67,69,62,57,75,72,69,29.97,29.86,11,2,0,0.02
2013-10-4,83,73,68,68,62,58,75,69,54,29.95,29.87,9,1,0,0.02
2013-10-5,77,65,49,68,55,41,75,71,68,29.99,29.86,20,2,0,0.00
2013-10-6,61,54,47,48,44,40,79,70,57,30.04,29.91,18,3,0,0.00
2013-10-7,66,58,50,49,46,43,78,63,48,30.13,30.01,14,2,0,0.00
2013-10-8,65,59,52,50,46,44,76,64,47,30.16,30.07,17,8,0,0.00
2013-10-9,70,62,53,52,49,44,76,64,52,30.14,30.05,15,1,0,0.00
2013-10-10,72,65,59,58,54,51,75,68,59,30.11,29.96,10,1,0,0.00
2013-10-11,75,66,60,64,57,51,75,73,66,30.00,29.89,10,2,0,0.00
2013-10-12,72,68,63,63,59,53,75,73,69,30.12,29.91,12,1,0,0.00
2013-10-13,70,64,60,57,54,51,76,70,62,30.28,30.11,19,9,0,0.00
2013-10-14,64,60,56,56,50,45,75,70,63,30.22,30.02,21,6,0,0.00
2013-10-15,64,62,58,55,54,50,76,74,70,30.02,29.90,11,1,0,1.31
2013-10-16,58,51,48,50,44,41,79,77,73,30.07,29.98,7,0,0,0.05
2013-10-17,62,54,46,48,44,38,79,70,58,30.08,29.99,7,0,0,0.05
2013-10-18,62,55,52,52,46,43,77,72,64,30.05,29.96,6,0,0,0.01
2013-10-19,54,48,41,43,39,34,80,71,58,30.12,29.98,9,2,0,0.01
2013-10-20,64,54,46,45,40,33,73,60,46,30.08,29.94,14,3,0,0.00
2013-10-21,63,53,46,53,45,39,78,75,66,30.07,29.98,9,1,0,0.01
2013-10-22,62,53,43,50,43,35,80,69,61,30.11,29.96,15,1,0,0.01
2013-10-23,61,53,45,46,42,36,78,66,41,30.16,30.04,11,1,0,0.00
2013-10-24,56,52,42,47,41,30,75,67,59,30.38,30.08,15,3,0,0.00
2013-10-25,48,42,36,32,29,27,71,61,47,30.52,30.31,18,7,0,0.00
2013-10-26,55,47,42,46,38,32,77,72,65,30.30,30.15,12,4,0,0.00
2013-11-26,42,34,29,33,24,-100,81,71,65,30.26,30.07,14,-10,0,0.01
2013-11-27,34,28,20,20,14,12,77,57,41,30.43,30.26,14,4,0,0.01
2013-11-28,47,37,28,26,20,13,62,51,40,30.49,30.38,8,1,0,0.00
2013-11-29,50,44,40,33,28,25,64,54,44,30.54,30.36,17,2,0,0.00
2013-11-30,52,45,39,42,35,29,78,69,60,30.36,30.19,15,3,0,0.00
2013-12-1,55,51,47,48,44,40,77,75,69,30.18,29.90,11,2,0,0.00
2013-12-2,58,54,51,50,45,41,76,72,68,29.89,29.68,7,1,0,0.00
2013-12-3,53,51,49,45,42,40,75,72,68,29.69,29.58,15,3,0,0.03
2013-12-4,65,55,44,55,46,38,79,74,63,29.85,29.61,14,3,0,0.04
2013-12-5,44,32,28,37,25,20,81,75,73,30.20,29.84,19,4,0,0.00
2013-12-6,29,22,18,22,16,13,79,76,74,30.53,30.14,0,0,0,0.00
2013-12-7,21,16,12,14,10,-100,82,79,77,30.65,30.35,0,-15,0,0.00
2013-12-8,25,19,18,18,14,12,79,78,75,30.35,30.17,0,0,0,0.00
2013-12-9,24,23,22,18,11,-100,77,72,75,30.36,30.32,0,-53,0,0.00
2013-12-10,32,25,18,24,18,13,79,76,74,30.50,30.34,0,0,0,0.00
2013-12-11,33,30,26,27,23,20,82,77,74,30.63,30.37,0,0,0,0.00
2013-12-12,36,29,21,29,22,15,82,77,71,30.66,30.38,0,0,0,0.00
2013-12-13,34,32,31,27,25,24,80,74,69,30.38,29.91,10,0,0,52.46
2013-12-14,35,32,27,29,25,20,77,75,73,30.24,29.86,19,7,0,0.11
2013-12-15,44,35,25,33,27,20,82,73,64,30.34,30.21,18,4,0,0.09
2013-12-16,58,48,40,38,34,31,72,58,45,30.22,30.12,11,2,0,0.09
2013-12-17,58,52,47,37,32,21,63,49,32,30.30,30.15,14,3,0,0.00
2013-12-18,52,44,40,36,27,17,61,51,27,30.29,30.19,12,5,0,0.00
2013-12-21,52,47,41,44,40,34,77,75,71,29.71,29.49,14,3,0,0.09
2013-12-22,43,31,26,35,24,21,83,76,73,30.34,29.71,20,4,0,0.10
2013-12-23,31,27,24,25,22,19,83,81,77,30.58,30.35,12,3,0,0.00
2013-12-24,32,26,21,23,20,14,83,78,71,30.61,30.40,14,4,0,0.00
2013-12-25,43,35,27,33,28,22,82,78,69,30.42,30.35,15,4,0,0.00
2013-12-26,44,39,34,32,30,26,80,70,58,30.46,30.37,9,3,0,0.00
2013-12-27,52,44,38,36,31,28,73,60,42,30.47,30.34,11,3,0,0.00
2013-12-28,45,43,39,35,31,28,77,64,52,30.34,29.97,17,5,0,0.00
2013-12-29,47,39,25,38,31,20,81,74,66,30.22,29.97,14,4,0,0.00
2013-12-30,28,25,22,22,20,17,82,81,78,30.41,30.21,15,3,0,0.00
2013-12-31,46,39,27,29,26,20,81,60,49,30.46,30.23,24,7,0,0.00
2014-1-1,50,40,32,38,32,24,79,71,58,30.22,29.96,18,6,0,0.00
2014-1-2,42,25,17,34,17,8,82,70,56,30.49,29.99,26,10,0,0.00